Auroraville, Wisconsin
Current Conditions -  °F | °C
As of 6:56 AM on Friday 31 Oct 2014 (Local Time) from KY50 Reporting Station
Broken Clouds Broken Clouds  
Wind Chill: 23°   Ceiling: 3400
Heat Index: 33°   Visibility: 10mi
Dew Point: 23°   Wind: 14mph
Humidity: 67%   Direction: 350°N
Pressure: 30.25"   Gusts: 25mph
Location:  43.9938°N, 88.9686°W
Report Text: KY50 311156Z AUTO 35012G22KT 10SM BKN034 01/M05 A3025 RMK AO2 TSNO 51035 60000 T00051050 10027 20000 SLP248
Loading
Personal Weather Stations






























Interactive Weather Map
Tropical Storm Tracking
New forecast layout! Learn more

10-Day Weather Forecast

Advertisements
Track Severe Weather on mobile